map of ELQ home
ELQ - Airport
Location
City:  Gassim, Saudi Arabia
Near (Alt.):Buraidah
Name:Prince Nayef bin Abdulaziz Airport
ICAO:OEGS
IATA:ELQ

Details
Type:Airport (Aerodrome, Airfield)
Use:Public/Civil, International (customs port of entry)
Latitude:2618'10"N (26.302778)
Longitude:4346'27"E (43.774167)
Elevation:2126 ft (648 m)
Variation:3.56E (WMM2015 magnetic declination)
0.06 annual change
Runways:1
Longest:9843 × 148 ft (3000 × 45 m), paved

Time
Time Zone:UTC+3
Local Time:

Weather
METAR:OEGS 121500Z 06005KT CAVOK 17/00 Q1023

Related Locations
Nearby:
Farthest:GMR: 12195 mi / 19625 km
Mangareva [Totegegie], Gambier Islands, PF

Find:

   beyond  
but within

Other Information
Maps:
NOTAMs:
Links:
Sources:

  
flag of Saudi Arabia   

Sectional Chart

Flight Planning
at skyvector.com

Satellite Image

Google Maps Satellite view

 

Copyright © 2004-2017 Karl L. Swartz. All rights reserved.
The Great Circle Mapper name and logo are trademarks of the Great Circle Mapper.
All other trademarks mentioned herein belong to their respective owners.
Please see credits for attibutions and further copyright information.

  Follow gcmap on Facebook Follow gcmap on Twitter Follow gcmap on Google+ GCmap on LinkedIn

hCard Microformat

Geo Microformat